createdAt,value
2023-05-14T00:01:45.426Z,100954.50
2023-05-14T00:04:15.926Z,100955.53
2023-05-14T00:06:45.939Z,100951.34
2023-05-14T00:09:16.645Z,100960.50
2023-05-14T00:11:47.517Z,100955.91
2023-05-14T00:14:18.111Z,100958.16
2023-05-14T00:16:48.214Z,100964.22
2023-05-14T00:19:18.845Z,100962.72
2023-05-14T00:21:49.922Z,100970.22
2023-05-14T00:24:20.112Z,100972.63
2023-05-14T00:26:50.751Z,100979.66
2023-05-14T00:29:20.868Z,100983.19
2023-05-14T00:31:51.485Z,100990.22
2023-05-14T00:34:21.721Z,100998.91
2023-05-14T00:36:52.744Z,101007.88
2023-05-14T00:39:23.052Z,101009.44
2023-05-14T00:41:53.179Z,101008.28
2023-05-14T00:44:23.252Z,101013.75
2023-05-14T00:46:54.271Z,101016.84
2023-05-14T00:49:25.428Z,101024.16
2023-05-14T00:51:56.191Z,101031.56
2023-05-14T00:54:26.715Z,101035.56
2023-05-14T00:56:58.060Z,101030.16
2023-05-14T00:59:28.434Z,101033.88
2023-05-14T01:01:59.019Z,101028.91
2023-05-14T01:04:29.415Z,101039.31
2023-05-14T01:07:05.600Z,101048.44
2023-05-14T01:09:39.149Z,101039.34
2023-05-14T01:12:19.412Z,101050.72
2023-05-14T01:14:49.886Z,101045.31
2023-05-14T01:17:24.326Z,101055.34
2023-05-14T01:19:56.241Z,101051.19
2023-05-14T01:22:26.391Z,101049.53
2023-05-14T01:24:57.360Z,101049.53
2023-05-14T01:27:40.739Z,101062.28
2023-05-14T01:30:14.237Z,101064.13
2023-05-14T01:32:46.618Z,101067.47
2023-05-14T01:35:17.923Z,101066.44
2023-05-14T01:37:49.095Z,101067.00
2023-05-14T01:40:19.691Z,101068.69
2023-05-14T01:42:50.187Z,101079.56
2023-05-14T01:45:23.927Z,101081.00
2023-05-14T01:47:54.448Z,101093.88
2023-05-14T01:50:25.701Z,101094.94
2023-05-14T01:52:57.820Z,101093.66
2023-05-14T01:55:28.345Z,101092.59
2023-05-14T01:57:58.882Z,101095.78
2023-05-14T02:00:29.197Z,101093.09
2023-05-14T02:03:01.006Z,101088.50
2023-05-14T02:05:31.182Z,101087.84
2023-05-14T02:08:02.095Z,101081.78
2023-05-14T02:10:32.359Z,101084.03
2023-05-14T02:13:03.587Z,101089.00
2023-05-14T02:15:34.045Z,101092.97
2023-05-14T02:18:05.082Z,101101.25
2023-05-14T02:20:35.418Z,101092.44
2023-05-14T02:23:06.174Z,101087.41
2023-05-14T02:25:37.194Z,101070.66
2023-05-14T02:28:08.036Z,101076.25
2023-05-14T02:30:38.371Z,101068.09
2023-05-14T02:33:09.347Z,101072.63
2023-05-14T02:35:39.719Z,101067.56
2023-05-14T02:38:10.422Z,101061.47
2023-05-14T02:40:40.679Z,101077.34
2023-05-14T02:43:11.138Z,101066.63
2023-05-14T02:45:41.360Z,101066.16
2023-05-14T02:48:11.860Z,101065.72
2023-05-14T02:50:42.677Z,101046.25
2023-05-14T02:53:13.394Z,101059.38
2023-05-14T02:55:44.847Z,101068.69
2023-05-14T02:58:15.387Z,101052.78
2023-05-14T03:00:46.211Z,101053.41
2023-05-14T03:03:17.015Z,101036.66
2023-05-14T03:05:48.044Z,101045.63
2023-05-14T03:08:18.446Z,101050.34
2023-05-14T03:10:49.156Z,101048.69
2023-05-14T03:13:22.186Z,101045.88
2023-05-14T03:15:56.234Z,101045.66
2023-05-14T03:18:26.743Z,101042.72
2023-05-14T03:21:00.277Z,101040.59
2023-05-14T03:23:33.404Z,101043.91
2023-05-14T03:26:05.179Z,101040.97
2023-05-14T03:28:35.709Z,101006.50
2023-05-14T03:31:06.640Z,101034.03
2023-05-14T03:33:37.370Z,101030.03
2023-05-14T03:36:08.237Z,101031.66
2023-05-14T03:38:38.576Z,101019.75
2023-05-14T03:41:09.484Z,101024.94
2023-05-14T03:43:40.375Z,101022.84
2023-05-14T03:46:11.156Z,101023.66
2023-05-14T03:48:41.649Z,100996.66
2023-05-14T03:51:12.394Z,101024.88
2023-05-14T03:53:42.935Z,101016.25
2023-05-14T03:56:13.918Z,100993.44
2023-05-14T03:58:45.802Z,100999.47
2023-05-14T04:01:18.153Z,101007.28
2023-05-14T04:03:48.694Z,101003.63
2023-05-14T04:06:19.984Z,100997.13
2023-05-14T04:08:50.481Z,100996.75
2023-05-14T04:11:21.472Z,101005.75
2023-05-14T04:13:53.199Z,100995.69
2023-05-14T04:16:24.078Z,100996.28
2023-05-14T04:18:54.612Z,100999.34
2023-05-14T04:21:25.523Z,100980.13
2023-05-14T04:24:00.042Z,100972.22
2023-05-14T04:26:30.713Z,100968.91
2023-05-14T04:29:04.444Z,100965.13
2023-05-14T04:31:35.083Z,100954.47
2023-05-14T04:34:05.587Z,100955.28
2023-05-14T04:36:36.424Z,100963.66
2023-05-14T04:39:07.575Z,100958.81
2023-05-14T04:41:38.267Z,100943.94
2023-05-14T04:44:09.205Z,100942.16
2023-05-14T04:46:39.687Z,100928.09
2023-05-14T04:49:10.167Z,100938.75
2023-05-14T04:51:40.928Z,100927.75
2023-05-14T04:54:11.538Z,100925.13
2023-05-14T04:56:42.595Z,100929.50
2023-05-14T04:59:13.190Z,100929.75
2023-05-14T05:01:44.131Z,100919.25
2023-05-14T05:04:14.852Z,100916.66
2023-05-14T05:06:48.858Z,100907.22
2023-05-14T05:09:22.209Z,100900.09
2023-05-14T05:11:52.984Z,100913.28
2023-05-14T05:14:23.768Z,100902.56
2023-05-14T05:16:54.346Z,100900.16
2023-05-14T05:19:35.655Z,100871.28
2023-05-14T05:22:10.656Z,100869.59
2023-05-14T05:24:41.190Z,100873.84
2023-05-14T05:27:11.967Z,100865.09
2023-05-14T05:29:42.415Z,100854.72
2023-05-14T05:32:13.216Z,100848.81
2023-05-14T05:34:43.770Z,100844.91
2023-05-14T05:37:16.105Z,100838.13
2023-05-14T05:39:49.748Z,100832.38
2023-05-14T05:42:20.239Z,100843.13
2023-05-14T05:44:50.601Z,100847.34
2023-05-14T05:47:21.282Z,100831.53
2023-05-14T05:49:51.991Z,100813.59
2023-05-14T05:52:25.102Z,100814.88
2023-05-14T05:54:55.632Z,100819.72
2023-05-14T05:57:28.529Z,100794.94
2023-05-14T05:59:59.679Z,100797.25
2023-05-14T06:02:30.461Z,100797.66
2023-05-14T06:05:01.023Z,100783.47
2023-05-14T06:07:32.435Z,100775.13
2023-05-14T06:10:06.569Z,100780.16
2023-05-14T06:12:38.603Z,100766.97
2023-05-14T06:15:09.660Z,100768.00
2023-05-14T06:17:40.632Z,100765.66
2023-05-14T06:20:11.543Z,100753.97
2023-05-14T06:22:42.231Z,100749.84
2023-05-14T06:25:12.971Z,100749.84
2023-05-14T06:27:43.512Z,100742.31
2023-05-14T06:30:15.486Z,100733.94
2023-05-14T06:32:46.230Z,100725.56
2023-05-14T06:35:16.915Z,100719.09
2023-05-14T06:37:47.824Z,100710.47
2023-05-14T06:40:18.450Z,100692.06
2023-05-14T06:42:49.296Z,100698.69
2023-05-14T06:45:19.801Z,100688.88
2023-05-14T06:47:50.873Z,100689.00
2023-05-14T06:50:23.426Z,100679.81
2023-05-14T06:52:54.161Z,100671.44
2023-05-14T06:55:24.761Z,100660.94
2023-05-14T06:57:55.120Z,100650.09
2023-05-14T07:00:26.409Z,100640.88
2023-05-14T07:02:56.900Z,100637.91
2023-05-14T07:05:28.013Z,100655.03
2023-05-14T07:07:58.330Z,100647.94
2023-05-14T07:10:34.997Z,100649.63
2023-05-14T07:13:05.339Z,100637.91
2023-05-14T07:15:39.385Z,100645.81
2023-05-14T07:18:10.280Z,100643.72
2023-05-14T07:20:41.291Z,100647.00
2023-05-14T07:23:11.758Z,100656.22
2023-05-14T07:25:42.882Z,100649.72
2023-05-14T07:28:13.234Z,100649.84
2023-05-14T07:30:44.381Z,100662.13
2023-05-14T07:33:14.719Z,100668.25
2023-05-14T07:35:45.669Z,100671.81
2023-05-14T07:38:15.938Z,100671.81
2023-05-14T07:40:46.930Z,100672.84
2023-05-14T07:43:17.268Z,100669.19
2023-05-14T07:45:48.083Z,100662.25
2023-05-14T07:48:18.592Z,100653.25
2023-05-14T07:50:50.907Z,100658.59
2023-05-14T07:53:21.349Z,100657.63
2023-05-14T07:55:54.918Z,100669.78
2023-05-14T07:58:26.449Z,100668.97
2023-05-14T08:00:58.179Z,100656.81
2023-05-14T08:03:28.724Z,100672.25
2023-05-14T08:05:59.794Z,100668.84
2023-05-14T08:08:30.237Z,100679.81
2023-05-14T08:11:01.056Z,100670.00
2023-05-14T08:13:32.753Z,100665.66
2023-05-14T08:16:05.776Z,100656.44
2023-05-14T08:18:36.151Z,100658.34
2023-05-14T08:21:07.075Z,100656.94
2023-05-14T08:23:37.703Z,100610.91
2023-05-14T08:26:08.799Z,100633.75
2023-05-14T08:28:39.127Z,100631.91
2023-05-14T08:31:10.328Z,100623.81
2023-05-14T08:33:42.754Z,100628.16
2023-05-14T08:36:13.589Z,100622.66
2023-05-14T08:38:43.936Z,100646.03
2023-05-14T08:41:17.418Z,100655.50
2023-05-14T08:43:47.580Z,100660.06
2023-05-14T08:46:19.760Z,100671.38
2023-05-14T08:48:53.409Z,100662.53
2023-05-14T08:51:24.379Z,100652.31
2023-05-14T08:53:54.864Z,100651.91
2023-05-14T08:56:27.196Z,100639.19
2023-05-14T08:58:57.559Z,100638.44
2023-05-14T09:01:31.417Z,100642.91
2023-05-14T09:04:08.411Z,100644.03
2023-05-14T09:06:39.606Z,100646.84
2023-05-14T09:09:09.997Z,100650.75
2023-05-14T09:11:50.812Z,100648.56
2023-05-14T09:14:21.463Z,100655.41
2023-05-14T09:16:53.118Z,100670.44
2023-05-14T09:19:23.718Z,100675.38
2023-05-14T09:21:54.960Z,100669.69
2023-05-14T09:24:26.552Z,100678.69
2023-05-14T09:26:58.496Z,100682.00
2023-05-14T09:29:30.635Z,100684.72
2023-05-14T09:32:03.719Z,100685.25
2023-05-14T09:34:35.333Z,100688.84
2023-05-14T09:37:07.063Z,100680.91
2023-05-14T09:39:38.095Z,100674.06
2023-05-14T09:42:10.380Z,100678.75
2023-05-14T09:44:41.148Z,100681.47
2023-05-14T09:47:12.243Z,100679.81
2023-05-14T09:49:43.663Z,100681.47
2023-05-14T09:52:14.599Z,100682.31
2023-05-14T09:54:44.963Z,100687.47
2023-05-14T09:57:16.089Z,100696.50
2023-05-14T09:59:46.698Z,100697.31
2023-05-14T10:02:27.951Z,100703.59
2023-05-14T10:05:00.276Z,100713.69
2023-05-14T10:07:37.301Z,100709.03
2023-05-14T10:10:09.868Z,100727.03
2023-05-14T10:12:43.688Z,100742.56
2023-05-14T10:15:22.693Z,100750.75
2023-05-14T10:17:57.860Z,100749.09
2023-05-14T10:20:28.988Z,100762.72
2023-05-14T10:23:11.820Z,100764.88
2023-05-14T10:25:46.620Z,100765.38
2023-05-14T10:28:17.744Z,100770.59
2023-05-14T10:31:08.229Z,100768.34
2023-05-14T10:33:52.788Z,100772.47
2023-05-14T10:36:24.243Z,100783.34
2023-05-14T10:39:00.892Z,100790.97
2023-05-14T10:41:31.435Z,100797.25
2023-05-14T10:44:10.928Z,100803.25
2023-05-14T10:46:41.392Z,100806.81
2023-05-14T10:49:12.376Z,100820.75
2023-05-14T10:51:43.145Z,100819.69
2023-05-14T10:54:14.231Z,100808.28
2023-05-14T10:56:45.771Z,100802.53
2023-05-14T10:59:19.051Z,100805.75
2023-05-14T11:01:49.685Z,100811.34
2023-05-14T11:04:21.049Z,100809.94
2023-05-14T11:06:53.644Z,100822.16
2023-05-14T11:09:26.163Z,100827.41
2023-05-14T11:11:56.554Z,100825.78
2023-05-14T11:14:27.497Z,100824.44
2023-05-14T11:16:59.293Z,100830.41
2023-05-14T11:19:30.592Z,100836.66
2023-05-14T11:22:02.772Z,100853.00
2023-05-14T11:24:33.974Z,100848.88
2023-05-14T11:27:04.387Z,100855.28
2023-05-14T11:29:35.221Z,100856.25
2023-05-14T11:32:08.949Z,100855.03
2023-05-14T11:34:40.208Z,100847.63
2023-05-14T11:37:11.534Z,100848.38
2023-05-14T11:39:48.535Z,100839.31
2023-05-14T11:42:20.819Z,100843.34
2023-05-14T11:44:53.134Z,100839.34
2023-05-14T11:47:24.049Z,100840.75
2023-05-14T11:49:57.276Z,100837.22
2023-05-14T11:52:27.738Z,100831.50
2023-05-14T11:54:58.707Z,100829.13
2023-05-14T11:57:29.378Z,100833.13
2023-05-14T12:00:00.358Z,100838.09
2023-05-14T12:02:30.941Z,100846.72
2023-05-14T12:05:03.021Z,100856.28
2023-05-14T12:07:33.985Z,100866.41
2023-05-14T12:10:05.644Z,100874.66
2023-05-14T12:12:39.160Z,100879.00
2023-05-14T12:15:16.389Z,100887.88
2023-05-14T12:17:56.025Z,100901.28
2023-05-14T12:20:27.865Z,100902.19
2023-05-14T12:22:58.214Z,100905.50
2023-05-14T12:25:28.993Z,100914.09
2023-05-14T12:27:59.965Z,100924.25
2023-05-14T12:30:39.178Z,100924.66
2023-05-14T12:33:09.759Z,100931.41
2023-05-14T12:35:41.295Z,100933.38
2023-05-14T12:38:12.271Z,100929.22
2023-05-14T12:40:43.464Z,100942.63
2023-05-14T12:43:13.940Z,100947.34
2023-05-14T12:45:44.895Z,100942.72
2023-05-14T12:48:15.485Z,100936.47
2023-05-14T12:50:53.411Z,100951.53
2023-05-14T12:53:25.090Z,100947.03
2023-05-14T12:55:59.588Z,100961.19
2023-05-14T12:58:30.129Z,100965.38
2023-05-14T13:01:01.229Z,100970.19
2023-05-14T13:03:40.111Z,100976.66
2023-05-14T13:06:11.505Z,100976.50
2023-05-14T13:08:42.761Z,100984.66
2023-05-14T13:11:14.283Z,100986.16
2023-05-14T13:13:44.923Z,100988.72
2023-05-14T13:16:18.539Z,100983.44
2023-05-14T13:18:49.410Z,100986.00
2023-05-14T13:21:24.261Z,100988.06
2023-05-14T13:23:58.101Z,100979.75
2023-05-14T13:26:29.858Z,100985.56
2023-05-14T13:29:00.546Z,100986.78
2023-05-14T13:31:42.220Z,100995.94
2023-05-14T13:34:14.564Z,100995.34
2023-05-14T13:36:45.820Z,100992.63
2023-05-14T13:39:16.949Z,100990.97
2023-05-14T13:41:47.988Z,100999.34
2023-05-14T13:44:21.213Z,100995.41
2023-05-14T13:46:52.585Z,100997.75
2023-05-14T13:49:27.456Z,101005.72
2023-05-14T13:52:01.597Z,101007.00
2023-05-14T13:54:34.660Z,101001.78
2023-05-14T13:57:16.021Z,101004.94
2023-05-14T14:00:12.804Z,101004.56
2023-05-14T14:02:44.239Z,101011.25
2023-05-14T14:05:15.068Z,101010.63
2023-05-14T14:07:47.574Z,101000.69
2023-05-14T14:10:40.922Z,101003.38
2023-05-14T14:13:12.605Z,101001.75
2023-05-14T14:15:44.088Z,101005.91
2023-05-14T14:18:15.925Z,101004.69
2023-05-14T14:20:46.594Z,101006.56
2023-05-14T14:23:18.445Z,101010.72
2023-05-14T14:25:50.323Z,101021.56
2023-05-14T14:28:21.603Z,101022.22
2023-05-14T14:30:55.107Z,101025.56
2023-05-14T14:33:29.849Z,101028.72
2023-05-14T14:36:05.797Z,101024.81
2023-05-14T14:38:41.606Z,101033.16
2023-05-14T14:41:12.427Z,101031.50
2023-05-14T14:43:43.793Z,101035.28
2023-05-14T14:46:18.122Z,101030.94
2023-05-14T14:48:49.492Z,101032.41
2023-05-14T14:51:20.103Z,101033.22
2023-05-14T14:53:51.217Z,101019.91
2023-05-14T14:56:25.144Z,101029.50
2023-05-14T14:58:56.124Z,101030.38
2023-05-14T15:01:28.128Z,101031.19
2023-05-14T15:04:00.784Z,101000.47
2023-05-14T15:06:31.394Z,101030.00
2023-05-14T15:09:05.355Z,101029.38
2023-05-14T15:11:37.288Z,101022.09
2023-05-14T15:14:08.562Z,101022.53
2023-05-14T15:16:41.634Z,101025.44
2023-05-14T15:19:12.740Z,101027.53
2023-05-14T15:21:44.393Z,101031.72
2023-05-14T15:24:18.582Z,101037.56
2023-05-14T15:26:52.022Z,101039.00
2023-05-14T15:29:24.116Z,101052.16
2023-05-14T15:31:54.767Z,101051.72
2023-05-14T15:34:28.808Z,101056.31
2023-05-14T15:36:59.476Z,101050.91
2023-05-14T15:39:30.863Z,101051.44
2023-05-14T15:42:01.713Z,101043.13
2023-05-14T15:44:33.169Z,101043.50
2023-05-14T15:47:06.705Z,101035.63
2023-05-14T15:49:37.780Z,101043.94
2023-05-14T15:52:08.406Z,101036.44
2023-05-14T15:54:39.597Z,101029.38
2023-05-14T15:57:10.190Z,101033.75
2023-05-14T15:59:41.760Z,101032.72
2023-05-14T16:02:12.666Z,101026.47
2023-05-14T16:04:44.336Z,101017.34
2023-05-14T16:07:17.780Z,101015.44
2023-05-14T16:09:52.785Z,101007.97
2023-05-14T16:12:23.318Z,101011.31
2023-05-14T16:14:54.318Z,101016.09
2023-05-14T16:17:25.513Z,101011.72
2023-05-14T16:19:59.437Z,101008.84
2023-05-14T16:22:33.332Z,101010.91
2023-05-14T16:25:06.465Z,101006.34
2023-05-14T16:27:40.070Z,101005.69
2023-05-14T16:30:11.077Z,101003.41
2023-05-14T16:32:44.273Z,101006.56
2023-05-14T16:35:15.247Z,101002.78
2023-05-14T16:37:45.728Z,101002.38
2023-05-14T16:40:17.747Z,100994.50
2023-05-14T16:42:50.938Z,100990.53
2023-05-14T16:45:22.174Z,100995.94
2023-05-14T16:47:52.806Z,100993.00
2023-05-14T16:50:25.977Z,100994.88
2023-05-14T16:52:56.548Z,100986.13
2023-05-14T16:55:28.058Z,100983.66
2023-05-14T16:58:01.116Z,100980.53
2023-05-14T17:00:35.067Z,100975.56
2023-05-14T17:03:05.721Z,100976.56
2023-05-14T17:05:37.309Z,100965.59
2023-05-14T17:08:07.710Z,100964.53
2023-05-14T17:10:38.682Z,100966.59
2023-05-14T17:13:09.111Z,100954.34
2023-05-14T17:15:41.657Z,100950.41
2023-05-14T17:18:13.469Z,100943.53
2023-05-14T17:20:48.014Z,100937.94
2023-05-14T17:23:20.577Z,100943.75
2023-05-14T17:25:51.920Z,100932.09
2023-05-14T17:28:22.980Z,100924.66
2023-05-14T17:30:53.751Z,100915.50
2023-05-14T17:33:24.282Z,100913.41
2023-05-14T17:35:55.333Z,100905.72
2023-05-14T17:38:26.304Z,100911.34
2023-05-14T17:40:57.000Z,100901.78
2023-05-14T17:43:27.343Z,100898.03
2023-05-14T17:45:58.392Z,100896.81
2023-05-14T17:48:34.731Z,100895.75
2023-05-14T17:51:05.932Z,100891.81
2023-05-14T17:53:36.316Z,100889.72
2023-05-14T17:56:07.220Z,100892.84
2023-05-14T17:58:37.687Z,100895.78
2023-05-14T18:01:08.495Z,100890.97
2023-05-14T18:03:39.085Z,100896.38
2023-05-14T18:06:10.266Z,100890.78
2023-05-14T18:08:40.655Z,100893.50
2023-05-14T18:11:11.309Z,100897.00
2023-05-14T18:13:41.490Z,100891.81
2023-05-14T18:16:11.834Z,100895.97
2023-05-14T18:18:42.635Z,100888.91
2023-05-14T18:21:13.156Z,100882.22
2023-05-14T18:23:43.413Z,100890.09
2023-05-14T18:26:14.130Z,100888.44
2023-05-14T18:28:44.747Z,100888.44
2023-05-14T18:31:15.146Z,100888.88
2023-05-14T18:33:45.702Z,100887.84
2023-05-14T18:36:15.966Z,100894.69
2023-05-14T18:38:46.480Z,100900.91
2023-05-14T18:41:16.976Z,100903.41
2023-05-14T18:43:47.855Z,100902.16
2023-05-14T18:46:18.337Z,100905.91
2023-05-14T18:48:49.001Z,100900.91
2023-05-14T18:51:19.314Z,100907.34
2023-05-14T18:53:49.741Z,100906.09
2023-05-14T18:56:20.088Z,100903.19
2023-05-14T18:58:50.657Z,100906.75
2023-05-14T19:01:20.970Z,100897.59
2023-05-14T19:03:51.676Z,100895.09
2023-05-14T19:06:22.356Z,100889.28
2023-05-14T19:08:53.139Z,100891.34
2023-05-14T19:11:23.661Z,100891.34
2023-05-14T19:13:53.834Z,100886.16
2023-05-14T19:16:24.623Z,100885.13
2023-05-14T19:18:54.841Z,100888.41
2023-05-14T19:21:25.513Z,100877.63
2023-05-14T19:23:55.588Z,100877.63
2023-05-14T19:26:26.379Z,100870.16
2023-05-14T19:28:59.890Z,100864.13
2023-05-14T19:31:30.453Z,100851.03
2023-05-14T19:34:01.006Z,100844.63
2023-05-14T19:36:33.186Z,100846.06
2023-05-14T19:39:03.721Z,100840.25
2023-05-14T19:41:33.997Z,100840.25
2023-05-14T19:44:04.957Z,100830.28
2023-05-14T19:46:35.261Z,100843.16
2023-05-14T19:49:06.160Z,100832.16
2023-05-14T19:51:36.416Z,100847.53
2023-05-14T19:54:06.798Z,100851.25
2023-05-14T19:56:37.094Z,100844.59
2023-05-14T19:59:07.669Z,100845.25
2023-05-14T20:01:37.950Z,100844.81
2023-05-14T20:04:08.910Z,100846.91
2023-05-14T20:06:46.856Z,100775.81
2023-05-14T20:09:17.279Z,100841.91
2023-05-14T20:11:47.386Z,100839.84
2023-05-14T20:14:18.087Z,100845.66
2023-05-14T20:16:48.419Z,100849.38
2023-05-14T20:19:19.289Z,100835.66
2023-05-14T20:21:50.114Z,100832.34
2023-05-14T20:24:20.652Z,100836.72
2023-05-14T20:26:51.156Z,100832.75
2023-05-14T20:29:21.650Z,100837.34
2023-05-14T20:31:51.741Z,100827.97
2023-05-14T20:34:21.934Z,100818.44
2023-05-14T20:36:52.402Z,100811.78
2023-05-14T20:39:22.584Z,100816.56
2023-05-14T20:41:53.552Z,100819.88
2023-05-14T20:44:23.662Z,100828.81
2023-05-14T20:46:53.896Z,100828.38
2023-05-14T20:49:24.461Z,100826.09
2023-05-14T20:51:54.662Z,100839.97
2023-05-14T20:54:24.929Z,100830.22
2023-05-14T20:56:55.221Z,100835.63
2023-05-14T20:59:25.586Z,100818.59
2023-05-14T21:01:55.903Z,100830.66
2023-05-14T21:04:26.646Z,100825.63
2023-05-14T21:06:58.006Z,100830.19
2023-05-14T21:09:28.822Z,100823.56
2023-05-14T21:11:59.130Z,100825.63
2023-05-14T21:14:29.725Z,100827.91
2023-05-14T21:16:59.860Z,100831.25
2023-05-14T21:19:30.284Z,100828.13
2023-05-14T21:22:00.397Z,100831.84
2023-05-14T21:24:30.910Z,100831.84
2023-05-14T21:27:01.584Z,100788.41
2023-05-14T21:29:32.505Z,100842.63
2023-05-14T21:32:02.698Z,100840.13
2023-05-14T21:34:33.080Z,100841.41
2023-05-14T21:37:03.621Z,100843.03
2023-05-14T21:39:33.784Z,100841.81
2023-05-14T21:42:04.024Z,100843.44
2023-05-14T21:44:34.452Z,100852.78
2023-05-14T21:47:05.238Z,100857.13
2023-05-14T21:49:35.685Z,100855.69
2023-05-14T21:52:06.656Z,100861.09
2023-05-14T21:54:37.033Z,100852.38
2023-05-14T21:57:07.972Z,100853.78
2023-05-14T21:59:38.754Z,100854.66
2023-05-14T22:02:08.970Z,100866.03
2023-05-14T22:04:39.795Z,100867.91
2023-05-14T22:07:10.212Z,100864.56
2023-05-14T22:09:40.581Z,100862.28
2023-05-14T22:12:10.946Z,100864.97
2023-05-14T22:14:41.341Z,100866.03
2023-05-14T22:17:11.646Z,100860.00
2023-05-14T22:19:42.435Z,100861.47
2023-05-14T22:22:12.685Z,100865.59
2023-05-14T22:24:42.814Z,100880.75
2023-05-14T22:27:13.173Z,100875.53
2023-05-14T22:29:43.604Z,100883.63
2023-05-14T22:32:13.821Z,100889.03
2023-05-14T22:34:44.116Z,100890.69
2023-05-14T22:37:15.002Z,100894.41
2023-05-14T22:39:45.341Z,100903.94
2023-05-14T22:42:16.059Z,100901.50
2023-05-14T22:44:46.513Z,100898.34
2023-05-14T22:47:17.485Z,100908.69
2023-05-14T22:49:47.552Z,100901.66
2023-05-14T22:52:21.259Z,100911.22
2023-05-14T22:54:52.516Z,100918.06
2023-05-14T22:57:23.346Z,100916.78
2023-05-14T22:59:53.879Z,100915.13
2023-05-14T23:02:24.069Z,100924.78
2023-05-14T23:04:54.523Z,100921.38
2023-05-14T23:07:24.836Z,100923.28
2023-05-14T23:09:55.279Z,100917.09
2023-05-14T23:12:25.569Z,100932.06
2023-05-14T23:14:55.669Z,100932.94
2023-05-14T23:17:26.497Z,100927.75
2023-05-14T23:19:56.704Z,100928.38
2023-05-14T23:22:27.034Z,100921.50
2023-05-14T23:24:57.387Z,100936.88
2023-05-14T23:27:28.033Z,100934.19
2023-05-14T23:29:58.398Z,100933.34
2023-05-14T23:32:29.109Z,100944.53
2023-05-14T23:34:59.709Z,100943.25
2023-05-14T23:37:29.957Z,100915.81
2023-05-14T23:40:00.431Z,100960.47
2023-05-14T23:42:30.966Z,100951.53
2023-05-14T23:45:01.303Z,100964.22
2023-05-14T23:47:31.998Z,100967.56
2023-05-14T23:50:02.553Z,100986.31
2023-05-14T23:52:32.827Z,100983.56
2023-05-14T23:55:03.220Z,100994.34
2023-05-14T23:57:33.326Z,100998.50
